KALW

Walla Walla Regional Airport

Walla Walla, Washington, USA
METAR KALW 092153Z 00000KT 5SM BR OVC006 M01/M04 A3031 RMK AO2 SLP277 T10111039
Observed Flight Rules
Dec-9 @ 21:53 UTC (26 minutes ago) Instrument Flight Rules
Visibility Clouds Conditions
5 miles
  • Overcast at 600' AGL
  • Mist
Temperatures Readings
Current -1°C / 30°F
Dewpoint -4°C / 25°F
Humidity 80%
Altimeter 30.31" Hg
Pressure 1027.7 hPa
Elevation 363
METAR KALW 092153Z 00000KT 5SM BR OVC006 M01/M04 A3031 RMK AO2 SLP277 T10111039
Observed Flight Rules
Dec-9 @ 21:53 UTC
(26 minutes ago)
IFR
Clouds
  • Overcast at 600' AGL
Conditions
  • Mist
Temperature Dewpoint
-1°C / 30°F -4°C / 25°F
Humidity Altimeter Pressure
80% 30.31" Hg 1027.7 hPa